Mc Ghee Tyson Airport
KTYS : now visible

Airfield :











YOU CAN JOIN US ON...

 
LOGIN :

Register | Disclaimer

   EN    FR    IT 

 









Legend :    VFR   Marginal VFR   IFR   Intensive IFR   Very Intensive IFR
Visi :
Ceiling :
>= 8 km
>= 3000ft
5 to 8 km
1000 to 3000 ft
1500m to 5 km
500 to 1000 ft
800 to 1500m
200 to 500 ft
< 800m
< 200 ft
Symbols :   Thunderstorms  Fog  Heavy snow  Heavy precipitations  Wind > 20 kt






- Airport Elevation : 981 ft
- IATA code : TYS


KTYS - Mc Ghee Tyson

CURRENT METAR :
  • 230053Z 36003KT 10SM CLR 12/M03 A3012 RMK AO2 SLP199 T01171033

EXPIRED METARs :
  • 222353Z 26005KT 10SM FEW075 SCT250 13/M04 A3011 RMK AO2 SLP198 T01331039 10156 20117 55006
  • 222253Z 22008KT 10SM FEW075 SCT250 14/M04 A3011 RMK AO2 SLP197 T01391039
  • 222153Z 26006KT 10SM FEW075 14/M04 A3011 RMK AO2 SLP198 T01441044

TAF KTYS
Valid from the 23 at 00:00 until the 24 at 00:00 UTC


222320Z 2300/2324 28007KT P6SM SKC
FM230200 04004KT P6SM SKC
FM231000 00000KT P6SM BKN150
FM231600 24007KT P6SM BKN070
KZTL FIR / North America



MET'MAP, your aeronautical weather chart ! - Copyright ORBIFLY December 2007 - Disclaimer

ORBIFLY MET'MAP TEAM :

Programming & Development : Alexandra Zaïnal
Concept & original design : Baudouin d'Aumeries
Assistance for programming : Marc-Olivier Méhu
Technical & hardware support : Manuel Goepfert

Contact : metmap@orbifly.com




SOURCES & CREDITS :

   NOAA       Earth
Advisory